createdAt,value
2017-10-16T00:01:57.347Z,22.50
2017-10-16T00:04:23.768Z,24.43
2017-10-16T00:06:50.268Z,23.90
2017-10-16T00:09:16.646Z,23.23
2017-10-16T00:11:43.121Z,22.43
2017-10-16T00:14:10.170Z,24.13
2017-10-16T00:16:36.603Z,22.67
2017-10-16T00:19:03.039Z,23.80
2017-10-16T00:21:29.473Z,24.17
2017-10-16T00:23:55.908Z,22.10
2017-10-16T00:26:22.344Z,23.20
2017-10-16T00:28:48.778Z,23.27
2017-10-16T00:31:15.949Z,23.70
2017-10-16T00:33:42.316Z,24.07
2017-10-16T00:36:08.688Z,25.43
2017-10-16T00:38:35.085Z,23.63
2017-10-16T00:41:01.524Z,23.90
2017-10-16T00:43:27.984Z,23.37
2017-10-16T00:45:54.389Z,24.13
2017-10-16T00:48:21.587Z,22.07
2017-10-16T00:50:48.022Z,21.00
2017-10-16T00:53:14.458Z,19.40
2017-10-16T00:55:40.892Z,18.90
2017-10-16T00:58:07.326Z,18.97
2017-10-16T01:00:33.762Z,20.07
2017-10-16T01:03:00.196Z,19.07
2017-10-16T01:05:27.450Z,17.00
2017-10-16T01:07:53.884Z,18.37
2017-10-16T01:10:20.320Z,18.30
2017-10-16T01:12:46.753Z,18.10
2017-10-16T01:15:13.191Z,18.87
2017-10-16T01:17:39.625Z,17.00
2017-10-16T01:20:06.059Z,16.07
2017-10-16T01:22:33.316Z,16.70
2017-10-16T01:24:59.731Z,14.90
2017-10-16T01:27:26.184Z,16.10
2017-10-16T01:29:52.635Z,16.30
2017-10-16T01:32:19.015Z,16.20
2017-10-16T01:34:45.487Z,17.77
2017-10-16T01:37:11.841Z,16.20
2017-10-16T01:39:39.017Z,15.10
2017-10-16T01:42:05.409Z,15.63
2017-10-16T01:44:31.842Z,14.90
2017-10-16T01:46:58.287Z,15.27
2017-10-16T01:49:24.664Z,15.60
2017-10-16T01:51:51.100Z,15.10
2017-10-16T01:54:17.566Z,14.70
2017-10-16T01:56:44.690Z,16.63
2017-10-16T01:59:11.168Z,14.73
2017-10-16T02:01:37.602Z,15.70
2017-10-16T02:04:04.036Z,15.47
2017-10-16T02:06:30.471Z,17.37
2017-10-16T02:08:56.905Z,15.90
2017-10-16T02:11:23.340Z,15.43
2017-10-16T02:13:50.493Z,14.87
2017-10-16T02:16:16.926Z,16.17
2017-10-16T02:18:43.361Z,17.00
2017-10-16T02:21:09.899Z,17.00
2017-10-16T02:23:36.334Z,16.60
2017-10-16T02:26:02.768Z,17.63
2017-10-16T02:28:29.203Z,18.60
2017-10-16T02:30:56.419Z,18.73
2017-10-16T02:33:22.891Z,18.87
2017-10-16T02:35:49.282Z,20.10
2017-10-16T02:38:15.717Z,20.70
2017-10-16T02:40:42.197Z,20.87
2017-10-16T02:43:08.641Z,20.10
2017-10-16T02:45:35.066Z,18.30
2017-10-16T02:48:02.321Z,18.27
2017-10-16T02:50:28.680Z,19.33
2017-10-16T02:52:55.087Z,21.47
2017-10-16T02:55:21.522Z,20.37
2017-10-16T02:57:47.922Z,21.27
2017-10-16T03:00:14.391Z,20.33
2017-10-16T03:02:40.826Z,22.37
2017-10-16T03:05:07.978Z,18.93
2017-10-16T03:07:34.413Z,19.33
2017-10-16T03:10:00.852Z,19.17
2017-10-16T03:12:27.283Z,19.60
2017-10-16T03:14:53.717Z,17.20
2017-10-16T03:17:20.208Z,18.27
2017-10-16T03:19:46.690Z,18.00
2017-10-16T03:22:13.840Z,18.17
2017-10-16T03:24:40.276Z,17.33
2017-10-16T03:27:06.684Z,17.90
2017-10-16T03:29:33.144Z,17.37
2017-10-16T03:31:59.580Z,17.47
2017-10-16T03:34:26.117Z,18.13
2017-10-16T03:36:52.551Z,17.37
2017-10-16T03:39:19.703Z,16.47
2017-10-16T03:41:46.144Z,17.93
2017-10-16T03:44:12.582Z,17.10
2017-10-16T03:46:39.008Z,18.70
2017-10-16T03:49:05.443Z,17.70
2017-10-16T03:51:31.877Z,19.30
2017-10-16T03:53:58.312Z,16.87
2017-10-16T03:56:25.567Z,16.50
2017-10-16T03:58:51.952Z,17.37
2017-10-16T04:01:18.332Z,16.20
2017-10-16T04:03:44.773Z,16.30
2017-10-16T04:06:11.203Z,16.80
2017-10-16T04:08:37.637Z,14.20
2017-10-16T04:11:04.027Z,15.40
2017-10-16T04:13:31.327Z,15.27
2017-10-16T04:15:57.785Z,14.73
2017-10-16T04:18:24.196Z,15.03
2017-10-16T04:20:50.632Z,15.10
2017-10-16T04:23:17.066Z,15.00
2017-10-16T04:25:43.501Z,14.80
2017-10-16T04:28:09.937Z,15.20
2017-10-16T04:30:37.209Z,14.67
2017-10-16T04:33:03.624Z,15.10
2017-10-16T04:35:30.162Z,15.20
2017-10-16T04:37:56.596Z,17.10
2017-10-16T04:40:23.031Z,17.93
2017-10-16T04:42:49.466Z,20.73
2017-10-16T04:45:15.900Z,19.80
2017-10-16T04:47:43.169Z,15.63
2017-10-16T04:50:09.691Z,16.73
2017-10-16T04:52:36.146Z,17.67
2017-10-16T04:55:02.619Z,16.83
2017-10-16T04:57:29.098Z,16.90
2017-10-16T04:59:55.606Z,18.40
2017-10-16T05:02:22.047Z,19.67
2017-10-16T05:04:49.328Z,21.37
2017-10-16T05:07:15.760Z,22.00
2017-10-16T05:09:42.195Z,22.90
2017-10-16T05:12:09.861Z,20.90
2017-10-16T05:14:36.292Z,22.40
2017-10-16T05:17:02.680Z,23.00
2017-10-16T05:19:29.387Z,23.00
2017-10-16T05:21:55.905Z,23.17
2017-10-16T05:24:22.360Z,20.70
2017-10-16T05:26:48.774Z,20.80
2017-10-16T05:29:15.168Z,19.53
2017-10-16T05:31:41.954Z,18.10
2017-10-16T05:34:08.590Z,18.00
2017-10-16T05:36:35.024Z,16.13
2017-10-16T05:39:01.413Z,15.80
2017-10-16T05:41:27.896Z,18.27
2017-10-16T05:43:54.330Z,18.90
2017-10-16T05:46:20.718Z,21.13
2017-10-16T05:48:47.199Z,21.53
2017-10-16T05:51:13.634Z,20.83
2017-10-16T05:53:40.073Z,24.57
2017-10-16T05:56:07.030Z,19.40
2017-10-16T05:58:33.450Z,19.57
2017-10-16T06:00:59.894Z,22.37
2017-10-16T06:03:26.321Z,19.73
2017-10-16T06:05:53.063Z,20.27
2017-10-16T06:08:19.497Z,18.60
2017-10-16T06:10:46.138Z,22.37
2017-10-16T06:13:12.780Z,19.80
2017-10-16T06:15:39.214Z,21.03
2017-10-16T06:18:05.788Z,19.87
2017-10-16T06:20:32.388Z,20.10
2017-10-16T06:22:58.767Z,21.10
2017-10-16T06:25:25.155Z,20.57
2017-10-16T06:27:51.681Z,21.10
2017-10-16T06:30:18.128Z,29.30
2017-10-16T06:32:44.787Z,24.00
2017-10-16T06:35:11.167Z,24.03
2017-10-16T06:37:37.580Z,23.37
2017-10-16T06:40:04.065Z,23.17
2017-10-16T06:42:30.506Z,23.47
2017-10-16T06:44:57.000Z,25.40
2017-10-16T06:47:24.137Z,44.43
2017-10-16T06:49:50.630Z,59.30
2017-10-16T06:52:17.067Z,45.50
2017-10-16T06:54:43.499Z,41.03
2017-10-16T06:57:09.934Z,34.13
2017-10-16T06:59:36.573Z,26.33
2017-10-16T07:02:03.005Z,26.10
2017-10-16T07:04:29.395Z,23.93
2017-10-16T07:06:55.878Z,25.00
2017-10-16T07:09:22.312Z,27.50
2017-10-16T07:11:48.918Z,25.93
2017-10-16T07:14:15.346Z,24.10
2017-10-16T07:16:41.822Z,23.63
2017-10-16T07:19:08.257Z,22.90
2017-10-16T07:21:34.999Z,24.20
2017-10-16T07:24:01.557Z,25.93
2017-10-16T07:26:28.072Z,26.63
2017-10-16T07:28:54.508Z,25.70
2017-10-16T07:31:20.941Z,24.40
2017-10-16T07:33:47.377Z,25.53
2017-10-16T07:36:13.915Z,24.57
2017-10-16T07:38:40.557Z,24.83
2017-10-16T07:41:07.091Z,24.40
2017-10-16T07:43:33.796Z,22.60
2017-10-16T07:46:00.252Z,32.57
2017-10-16T07:48:26.671Z,21.90
2017-10-16T07:50:53.136Z,19.03
2017-10-16T07:53:19.579Z,19.80
2017-10-16T07:55:46.115Z,20.17
2017-10-16T07:58:12.629Z,20.80
2017-10-16T08:00:39.019Z,21.70
2017-10-16T08:03:05.414Z,19.23
2017-10-16T08:05:31.952Z,21.00
2017-10-16T08:07:58.386Z,19.20
2017-10-16T08:10:24.821Z,20.07
2017-10-16T08:12:51.257Z,18.83
2017-10-16T08:15:17.775Z,26.23
2017-10-16T08:17:44.227Z,58.10
2017-10-16T08:20:10.663Z,17.57
2017-10-16T08:22:37.113Z,15.40
2017-10-16T08:25:03.587Z,20.50
2017-10-16T08:27:30.069Z,40.23
2017-10-16T08:29:56.520Z,38.10
2017-10-16T08:32:23.024Z,40.90
2017-10-16T08:34:49.477Z,16.73
2017-10-16T08:37:16.068Z,15.20
2017-10-16T08:39:43.165Z,15.53
2017-10-16T08:42:09.600Z,14.40
2017-10-16T08:44:36.035Z,14.77
2017-10-16T08:47:02.674Z,14.80
2017-10-16T08:49:29.109Z,14.63
2017-10-16T08:51:55.543Z,14.53
2017-10-16T08:54:21.978Z,14.37
2017-10-16T08:56:48.414Z,14.70
2017-10-16T08:59:14.811Z,14.43
2017-10-16T09:01:41.180Z,14.90
2017-10-16T09:04:07.532Z,14.17
2017-10-16T09:06:33.948Z,14.23
2017-10-16T09:09:00.383Z,15.07
2017-10-16T09:11:26.817Z,14.80
2017-10-16T09:13:53.206Z,14.37
2017-10-16T09:16:19.687Z,14.17
2017-10-16T09:18:46.483Z,14.60
2017-10-16T09:21:12.966Z,12.70
2017-10-16T09:23:39.402Z,13.77
2017-10-16T09:26:05.836Z,11.57
2017-10-16T09:28:32.274Z,12.10
2017-10-16T09:30:58.656Z,12.93
2017-10-16T09:33:25.550Z,10.63
2017-10-16T09:35:52.086Z,12.50
2017-10-16T09:38:18.541Z,10.20
2017-10-16T09:40:45.898Z,11.23
2017-10-16T09:43:12.620Z,9.27
2017-10-16T09:45:39.567Z,8.83
2017-10-16T09:48:06.002Z,9.43
2017-10-16T09:50:32.528Z,9.33
2017-10-16T09:52:58.959Z,9.30
2017-10-16T09:55:25.409Z,8.97
2017-10-16T09:57:51.852Z,8.97
2017-10-16T10:00:18.380Z,9.30
2017-10-16T10:02:45.228Z,9.10
2017-10-16T10:05:11.674Z,9.20
2017-10-16T10:07:38.409Z,9.00
2017-10-16T10:10:05.349Z,9.50
2017-10-16T10:12:31.733Z,8.90
2017-10-16T10:14:58.238Z,9.70
2017-10-16T10:17:24.756Z,9.13
2017-10-16T10:19:51.210Z,9.83
2017-10-16T10:22:17.728Z,9.80
2017-10-16T10:24:44.440Z,9.87
2017-10-16T10:27:10.909Z,10.00
2017-10-16T10:29:37.391Z,9.30
2017-10-16T10:32:03.869Z,9.20
2017-10-16T10:34:30.311Z,9.50
2017-10-16T10:36:56.800Z,9.03
2017-10-16T10:39:23.233Z,9.40
2017-10-16T10:41:49.716Z,9.30
2017-10-16T10:44:16.153Z,9.23
2017-10-16T10:46:42.588Z,9.57
2017-10-16T10:49:08.971Z,9.47
2017-10-16T10:51:35.355Z,9.17
2017-10-16T10:54:01.813Z,8.53
2017-10-16T10:56:28.839Z,9.30
2017-10-16T10:58:55.303Z,9.40
2017-10-16T11:01:22.224Z,10.10
2017-10-16T11:03:48.656Z,9.90
2017-10-16T11:06:15.110Z,11.13
2017-10-16T11:08:42.404Z,10.73
2017-10-16T11:11:08.884Z,10.37
2017-10-16T11:13:35.424Z,13.43
2017-10-16T11:16:02.473Z,9.03
2017-10-16T11:18:28.902Z,9.27
2017-10-16T11:20:55.397Z,9.40
2017-10-16T11:23:22.491Z,8.80
2017-10-16T11:25:48.981Z,9.60
2017-10-16T11:28:15.336Z,9.10
2017-10-16T11:30:42.299Z,9.70
2017-10-16T11:33:08.684Z,8.70
2017-10-16T11:35:35.159Z,9.00
2017-10-16T11:38:01.612Z,9.40
2017-10-16T11:40:28.048Z,9.30
2017-10-16T11:42:54.432Z,8.60
2017-10-16T11:45:20.916Z,9.10
2017-10-16T11:47:47.349Z,9.83
2017-10-16T11:50:13.988Z,10.47
2017-10-16T11:52:40.547Z,10.80
2017-10-16T11:55:06.960Z,9.13
2017-10-16T11:57:33.356Z,8.73
2017-10-16T11:59:59.814Z,9.47
2017-10-16T12:02:26.212Z,7.87
2017-10-16T12:04:52.700Z,8.27
2017-10-16T12:07:19.337Z,7.87
2017-10-16T12:09:45.876Z,7.87
2017-10-16T12:12:12.332Z,8.00
2017-10-16T12:14:38.850Z,8.27
2017-10-16T12:17:05.285Z,8.00
2017-10-16T12:19:31.880Z,7.97
2017-10-16T12:21:58.804Z,7.07
2017-10-16T12:24:25.306Z,7.83
2017-10-16T12:26:51.741Z,8.30
2017-10-16T12:29:18.175Z,7.93
2017-10-16T12:31:44.903Z,8.97
2017-10-16T12:34:11.472Z,7.70
2017-10-16T12:36:42.654Z,8.00
2017-10-16T12:39:11.491Z,8.07
2017-10-16T12:41:37.927Z,8.60
2017-10-16T12:44:06.861Z,8.60
2017-10-16T12:46:35.403Z,7.90
2017-10-16T12:49:01.847Z,7.70
2017-10-16T12:51:28.251Z,8.03
2017-10-16T12:53:54.692Z,7.70
2017-10-16T12:56:21.556Z,7.70
2017-10-16T12:58:48.090Z,7.27
2017-10-16T13:01:14.572Z,7.03
2017-10-16T13:03:41.343Z,7.60
2017-10-16T13:06:07.782Z,7.00
2017-10-16T13:08:34.197Z,7.10
2017-10-16T13:11:01.122Z,7.20
2017-10-16T13:13:27.517Z,7.00
2017-10-16T13:15:54.056Z,7.27
2017-10-16T13:18:21.105Z,7.90
2017-10-16T13:20:47.539Z,7.33
2017-10-16T13:23:14.754Z,7.03
2017-10-16T13:25:41.638Z,7.10
2017-10-16T13:28:08.072Z,6.87
2017-10-16T13:30:34.513Z,7.17
2017-10-16T13:33:00.943Z,7.87
2017-10-16T13:35:27.377Z,7.00
2017-10-16T13:37:53.764Z,7.80
2017-10-16T13:40:20.246Z,7.10
2017-10-16T13:42:47.215Z,7.07
2017-10-16T13:45:13.730Z,7.57
2017-10-16T13:47:40.165Z,6.90
2017-10-16T13:50:06.716Z,8.07
2017-10-16T13:55:06.106Z,7.00
2017-10-16T13:57:32.834Z,8.30
2017-10-16T13:59:59.325Z,7.60
2017-10-16T14:02:25.916Z,8.30
2017-10-16T14:04:53.481Z,7.83
2017-10-16T14:07:19.997Z,7.60
2017-10-16T14:09:46.424Z,7.93
2017-10-16T14:12:12.983Z,7.60
2017-10-16T14:14:39.542Z,8.10
2017-10-16T14:17:06.053Z,7.77
2017-10-16T14:19:35.903Z,7.00
2017-10-16T14:22:02.388Z,7.10
2017-10-16T14:24:28.941Z,7.70
2017-10-16T14:26:55.804Z,8.20
2017-10-16T14:29:22.425Z,8.13
2017-10-16T14:31:49.603Z,8.47
2017-10-16T14:34:16.353Z,8.83
2017-10-16T14:36:42.862Z,7.93
2017-10-16T14:39:09.292Z,9.03
2017-10-16T14:41:35.726Z,10.07
2017-10-16T14:44:02.162Z,9.50
2017-10-16T14:46:28.698Z,10.90
2017-10-16T14:48:55.177Z,12.03
2017-10-16T14:51:21.568Z,12.50
2017-10-16T14:53:48.002Z,13.03
2017-10-16T14:56:14.438Z,15.17
2017-10-16T14:58:40.821Z,15.87
2017-10-16T15:01:07.308Z,15.70
2017-10-16T15:03:33.743Z,17.30
2017-10-16T15:06:00.179Z,17.70
2017-10-16T15:08:26.562Z,17.50
2017-10-16T15:10:53.045Z,18.63
2017-10-16T15:13:19.481Z,16.93
2017-10-16T15:15:46.571Z,19.47
2017-10-16T15:18:17.352Z,19.03
2017-10-16T15:20:43.810Z,19.80
2017-10-16T15:33:16.583Z,22.47
2017-10-16T15:35:43.731Z,21.30
2017-10-16T15:38:10.233Z,22.17
2017-10-16T15:40:36.668Z,24.13
2017-10-16T15:43:03.835Z,25.03
2017-10-16T15:45:30.405Z,27.00
2017-10-16T15:47:56.791Z,26.30
2017-10-16T15:50:24.816Z,25.37
2017-10-16T15:52:51.636Z,24.47
2017-10-16T15:57:50.327Z,24.10
2017-10-16T16:00:16.781Z,24.47
2017-10-16T16:02:43.269Z,24.20
2017-10-16T16:05:09.735Z,22.60
2017-10-16T16:07:36.168Z,22.37
2017-10-16T16:10:02.605Z,20.60
2017-10-16T16:12:29.038Z,21.47
2017-10-16T16:14:55.473Z,24.60
2017-10-16T16:17:21.911Z,21.60
2017-10-16T16:19:48.347Z,20.87
2017-10-16T16:22:14.777Z,22.47
2017-10-16T16:24:41.213Z,25.13
2017-10-16T16:27:07.752Z,23.37
2017-10-16T16:29:34.186Z,25.30
2017-10-16T16:32:00.620Z,23.30
2017-10-16T16:34:27.056Z,21.40
2017-10-16T16:36:53.489Z,22.80
2017-10-16T16:39:19.882Z,20.30
2017-10-16T16:41:46.306Z,19.70
2017-10-16T16:44:12.814Z,19.90
2017-10-16T16:46:39.228Z,19.70
2017-10-16T16:49:06.483Z,20.17
2017-10-16T16:51:32.932Z,21.23
2017-10-16T16:53:59.355Z,20.00
2017-10-16T16:56:25.774Z,21.57
2017-10-16T16:58:52.226Z,22.03
2017-10-16T17:01:18.642Z,21.47
2017-10-16T17:03:45.083Z,21.80
2017-10-16T17:06:12.196Z,25.00
2017-10-16T17:08:39.702Z,20.53
2017-10-16T17:11:06.075Z,21.60
2017-10-16T17:13:32.572Z,24.27
2017-10-16T17:15:59.013Z,23.07
2017-10-16T17:18:25.414Z,22.73
2017-10-16T17:20:51.832Z,22.70
2017-10-16T17:23:18.313Z,23.17
2017-10-16T17:25:44.746Z,21.40
2017-10-16T17:28:11.183Z,21.80
2017-10-16T17:30:37.718Z,21.93
2017-10-16T17:33:04.077Z,23.33
2017-10-16T17:35:30.588Z,27.00
2017-10-16T17:37:57.025Z,24.77
2017-10-16T17:40:24.174Z,25.03
2017-10-16T17:42:50.712Z,25.33
2017-10-16T17:45:17.146Z,24.27
2017-10-16T17:47:43.573Z,25.83
2017-10-16T17:50:09.969Z,24.77
2017-10-16T17:52:36.439Z,24.90
2017-10-16T17:55:02.885Z,26.70
2017-10-16T17:57:30.038Z,26.10
2017-10-16T17:59:56.472Z,27.20
2017-10-16T18:02:22.958Z,25.83
2017-10-16T18:04:49.445Z,26.20
2017-10-16T18:07:15.827Z,26.57
2017-10-16T18:09:42.315Z,25.70
2017-10-16T18:12:08.773Z,26.00
2017-10-16T18:14:35.901Z,26.97
2017-10-16T18:17:02.355Z,25.20
2017-10-16T18:19:28.756Z,27.20
2017-10-16T18:21:55.167Z,29.30
2017-10-16T18:24:21.649Z,25.67
2017-10-16T18:26:48.082Z,26.97
2017-10-16T18:29:14.512Z,26.50
2017-10-16T18:31:41.663Z,26.80
2017-10-16T18:34:08.051Z,26.77
2017-10-16T18:36:34.483Z,24.90
2017-10-16T18:39:00.914Z,27.57
2017-10-16T18:41:27.392Z,27.97
2017-10-16T18:43:53.832Z,28.53
2017-10-16T18:46:20.254Z,26.50
2017-10-16T18:48:47.416Z,26.67
2017-10-16T18:51:13.858Z,25.73
2017-10-16T18:53:40.294Z,27.57
2017-10-16T18:56:06.727Z,27.90
2017-10-16T18:58:33.161Z,27.37
2017-10-16T19:00:59.579Z,27.10
2017-10-16T19:03:26.023Z,27.80
2017-10-16T19:05:53.166Z,26.37
2017-10-16T19:08:19.616Z,26.40
2017-10-16T19:10:46.007Z,24.83
2017-10-16T19:13:12.487Z,27.07
2017-10-16T19:15:38.923Z,27.70
2017-10-16T19:18:05.326Z,25.67
2017-10-16T19:20:31.895Z,24.40
2017-10-16T19:22:58.943Z,24.60
2017-10-16T19:25:25.378Z,24.60
2017-10-16T19:27:51.813Z,23.80
2017-10-16T19:30:18.248Z,23.50
2017-10-16T19:32:44.682Z,22.93
2017-10-16T19:35:11.175Z,24.23
2017-10-16T19:37:37.654Z,23.00
2017-10-16T19:40:04.806Z,24.03
2017-10-16T19:42:31.241Z,23.50
2017-10-16T19:44:57.631Z,22.80
2017-10-16T19:47:24.066Z,24.17
2017-10-16T19:49:50.546Z,23.20
2017-10-16T19:52:16.980Z,22.50
2017-10-16T19:54:43.517Z,22.43
2017-10-16T19:57:10.669Z,21.60
2017-10-16T19:59:37.104Z,23.43
2017-10-16T20:02:03.539Z,23.87
2017-10-16T20:04:29.924Z,22.10
2017-10-16T20:06:56.411Z,24.13
2017-10-16T20:09:22.846Z,22.93
2017-10-16T20:11:49.227Z,23.50
2017-10-16T20:14:16.552Z,21.30
2017-10-16T20:16:42.970Z,21.37
2017-10-16T20:19:09.422Z,21.10
2017-10-16T20:21:35.807Z,22.80
2017-10-16T20:24:02.272Z,22.17
2017-10-16T20:26:28.707Z,22.90
2017-10-16T20:28:55.147Z,22.10
2017-10-16T20:31:22.327Z,21.93
2017-10-16T20:33:48.820Z,22.47
2017-10-16T20:36:15.216Z,22.60
2017-10-16T20:38:41.681Z,25.07
2017-10-16T20:41:08.091Z,23.60
2017-10-16T20:43:34.568Z,23.97
2017-10-16T20:46:01.005Z,25.40
2017-10-16T20:48:28.249Z,23.70
2017-10-16T20:50:54.693Z,23.17
2017-10-16T20:53:21.127Z,23.50
2017-10-16T20:55:47.502Z,23.20
2017-10-16T20:58:13.997Z,24.63
2017-10-16T21:00:40.431Z,23.77
2017-10-16T21:03:06.867Z,24.57
2017-10-16T21:05:34.034Z,22.50
2017-10-16T21:08:00.469Z,24.03
2017-10-16T21:10:26.893Z,23.70
2017-10-16T21:12:53.322Z,24.00
2017-10-16T21:15:19.758Z,23.60
2017-10-16T21:17:46.211Z,22.87
2017-10-16T21:20:12.627Z,22.73
2017-10-16T21:22:39.881Z,20.30
2017-10-16T21:25:06.316Z,22.40
2017-10-16T21:27:32.702Z,23.47
2017-10-16T21:29:59.185Z,23.00
2017-10-16T21:32:25.538Z,21.93
2017-10-16T21:34:51.954Z,22.40
2017-10-16T21:37:18.489Z,22.73
2017-10-16T21:39:45.539Z,23.83
2017-10-16T21:42:11.973Z,22.93
2017-10-16T21:44:38.426Z,23.93
2017-10-16T21:47:04.842Z,23.90
2017-10-16T21:49:31.282Z,23.80
2017-10-16T21:51:57.663Z,21.30
2017-10-16T21:54:24.100Z,23.07
2017-10-16T21:56:51.243Z,21.77
2017-10-16T21:59:17.683Z,21.60
2017-10-16T22:01:44.170Z,23.20
2017-10-16T22:04:10.549Z,22.00
2017-10-16T22:06:37.032Z,23.30
2017-10-16T22:09:03.465Z,22.40
2017-10-16T22:11:29.908Z,23.97
2017-10-16T22:13:56.343Z,24.73
2017-10-16T22:16:22.778Z,22.60
2017-10-16T22:18:49.212Z,23.37
2017-10-16T22:21:16.672Z,25.83
2017-10-16T22:23:43.106Z,24.97
2017-10-16T22:26:09.522Z,24.77
2017-10-16T22:28:35.963Z,24.40
2017-10-16T22:31:02.411Z,24.00
2017-10-16T22:33:28.850Z,24.03
2017-10-16T22:35:55.282Z,23.97
2017-10-16T22:38:22.536Z,25.87
2017-10-16T22:40:48.969Z,26.17
2017-10-16T22:43:15.423Z,24.97
2017-10-16T22:45:41.839Z,23.60
2017-10-16T22:48:08.274Z,23.30
2017-10-16T22:50:34.708Z,24.90
2017-10-16T22:53:01.143Z,23.27
2017-10-16T22:55:28.397Z,23.03
2017-10-16T22:57:54.834Z,24.00
2017-10-16T23:00:21.289Z,23.70
2017-10-16T23:02:47.702Z,24.00
2017-10-16T23:05:14.138Z,24.07
2017-10-16T23:07:40.515Z,23.97
2017-10-16T23:10:07.009Z,23.50
2017-10-16T23:12:34.159Z,23.07
2017-10-16T23:15:00.594Z,23.33
2017-10-16T23:17:27.028Z,23.57
2017-10-16T23:19:53.463Z,22.33
2017-10-16T23:22:19.863Z,23.00
2017-10-16T23:24:46.283Z,23.00
2017-10-16T23:27:12.660Z,22.40
2017-10-16T23:29:39.836Z,22.57
2017-10-16T23:32:06.216Z,23.20
2017-10-16T23:34:32.684Z,21.80
2017-10-16T23:36:59.126Z,23.10
2017-10-16T23:39:25.559Z,23.50
2017-10-16T23:41:52.009Z,24.43
2017-10-16T23:44:18.425Z,24.23
2017-10-16T23:46:45.634Z,23.40
2017-10-16T23:49:12.063Z,22.37
2017-10-16T23:51:38.446Z,22.53
2017-10-16T23:54:04.888Z,21.13
2017-10-16T23:56:31.315Z,22.67
2017-10-16T23:58:57.751Z,20.97
